createdAt,value
2018-06-14T09:04:54.225Z,100191.55
2018-06-14T09:07:24.087Z,100191.18
2018-06-14T09:09:53.137Z,100192.54
2018-06-14T09:12:22.159Z,100194.33
2018-06-14T09:14:51.269Z,100196.67
2018-06-14T09:17:20.325Z,100190.28
2018-06-14T09:19:49.340Z,100193.50
2018-06-14T09:22:18.423Z,100194.18
2018-06-14T09:24:47.675Z,100191.39
2018-06-14T09:27:16.746Z,100189.38
2018-06-14T09:29:45.742Z,100184.21
2018-06-14T09:32:14.783Z,100186.85
2018-06-14T09:34:43.818Z,100178.23
2018-06-14T09:37:12.862Z,100175.84
2018-06-14T09:39:41.906Z,100174.73
2018-06-14T09:42:10.951Z,100175.45
2018-06-14T09:44:39.965Z,100179.62
2018-06-14T09:47:08.947Z,100176.98
2018-06-14T09:49:40.810Z,100173.23
2018-06-14T09:52:11.558Z,100173.36
2018-06-14T09:54:50.986Z,100161.45
2018-06-14T09:57:20.020Z,100163.83
2018-06-14T09:59:49.011Z,100159.84
2018-06-14T10:02:18.139Z,100162.81
2018-06-14T10:04:47.179Z,100168.83
2018-06-14T10:07:16.193Z,100161.23
2018-06-14T10:09:45.249Z,100163.49
2018-06-14T10:12:14.239Z,100154.89
2018-06-14T10:14:43.233Z,100154.92
2018-06-14T10:17:12.211Z,100158.10
2018-06-14T10:19:41.201Z,100154.22
2018-06-14T10:22:10.240Z,100160.09
2018-06-14T10:24:39.312Z,100155.24
2018-06-14T10:27:08.310Z,100142.61
2018-06-14T10:29:37.647Z,100140.00
2018-06-14T10:32:06.653Z,100147.38
2018-06-14T10:34:35.755Z,100145.28
2018-06-14T10:37:04.745Z,100145.55
2018-06-14T10:39:33.752Z,100141.96
2018-06-14T10:42:02.831Z,100146.19
2018-06-14T10:44:31.835Z,100146.81
2018-06-14T10:47:00.835Z,100146.32
2018-06-14T10:49:29.858Z,100123.70
2018-06-14T10:51:58.949Z,100131.26
2018-06-14T10:54:43.868Z,100123.38
2018-06-14T10:57:12.879Z,100124.12
2018-06-14T10:59:41.894Z,100130.58
2018-06-14T11:02:10.881Z,100123.19
2018-06-14T11:04:39.964Z,100123.47
2018-06-14T11:07:08.977Z,100130.50
2018-06-14T11:09:37.990Z,100129.11
2018-06-14T11:12:07.059Z,100118.81
2018-06-14T11:14:36.053Z,100122.13
2018-06-14T11:17:05.069Z,100125.77
2018-06-14T11:19:34.069Z,100123.16
2018-06-14T11:22:03.186Z,100122.17
2018-06-14T11:24:32.221Z,100122.34
2018-06-14T11:27:01.254Z,100111.73
2018-06-14T11:29:30.266Z,100105.77
2018-06-14T11:31:59.455Z,100108.02
2018-06-14T11:34:28.574Z,100106.53
2018-06-14T11:36:57.566Z,100104.24
2018-06-14T11:39:26.673Z,100103.42
2018-06-14T11:41:56.051Z,100101.73
2018-06-14T11:44:26.714Z,100099.36
2018-06-14T11:46:55.767Z,100103.65
2018-06-14T11:49:24.880Z,100100.69
2018-06-14T11:51:53.891Z,100107.84
2018-06-14T11:54:22.883Z,100102.77
2018-06-14T11:56:51.913Z,100104.13
2018-06-14T11:59:20.885Z,100100.14
2018-06-14T12:01:49.953Z,100086.59
2018-06-14T12:04:18.842Z,100092.51
2018-06-14T12:06:47.823Z,100095.17
2018-06-14T12:09:17.018Z,100083.25
2018-06-14T12:11:46.016Z,100090.37
2018-06-14T12:14:15.039Z,100081.64
2018-06-14T12:16:44.139Z,100083.38
2018-06-14T12:19:13.131Z,100071.02
2018-06-14T12:21:42.140Z,100068.64
2018-06-14T12:24:11.098Z,100067.53
2018-06-14T12:26:40.130Z,100062.72
2018-06-14T12:29:09.136Z,100064.16
2018-06-14T12:31:38.218Z,100064.36
2018-06-14T12:34:07.190Z,100067.48
2018-06-14T12:36:36.311Z,100059.98
2018-06-14T12:39:07.510Z,100066.70
2018-06-14T12:41:36.539Z,100062.19
2018-06-14T12:44:05.561Z,100063.91
2018-06-14T12:46:34.612Z,100055.81
2018-06-14T12:49:04.026Z,100048.34
2018-06-14T12:51:33.407Z,100058.56
2018-06-14T12:54:02.717Z,100056.46
2018-06-14T12:56:31.734Z,100054.27
2018-06-14T12:59:00.730Z,100059.60
2018-06-14T13:01:29.859Z,100057.22
2018-06-14T13:03:58.869Z,100052.53
2018-06-14T13:06:27.819Z,100053.69
2018-06-14T13:08:56.842Z,100053.27
2018-06-14T13:11:26.262Z,100047.28
2018-06-14T13:13:55.254Z,100047.81
2018-06-14T13:16:24.278Z,100043.87
2018-06-14T13:18:53.280Z,100043.34
2018-06-14T13:21:22.278Z,100036.59
2018-06-14T13:23:51.280Z,100039.45
2018-06-14T13:26:20.290Z,100029.36
2018-06-14T13:28:49.299Z,100018.68
2018-06-14T13:31:18.796Z,100018.52
2018-06-14T13:33:47.793Z,100023.52
2018-06-14T13:36:21.332Z,100021.56
2018-06-14T13:38:50.415Z,100016.46
2018-06-14T13:41:19.414Z,100014.72
2018-06-14T13:43:48.414Z,100024.33
2018-06-14T13:46:17.478Z,100025.36
2018-06-14T13:48:46.529Z,100019.16
2018-06-14T13:51:15.520Z,100020.72
2018-06-14T13:53:44.513Z,100019.38
2018-06-14T13:56:13.539Z,100007.70
2018-06-14T13:58:42.528Z,100003.18
2018-06-14T14:01:11.663Z,100004.28
2018-06-14T14:03:40.573Z,99990.02
2018-06-14T14:06:09.553Z,99994.02
2018-06-14T14:08:38.635Z,99993.50
2018-06-14T14:11:07.589Z,99992.36
2018-06-14T14:13:36.581Z,99989.62
2018-06-14T14:16:05.615Z,99988.41
2018-06-14T14:18:34.593Z,99985.72
2018-06-14T14:21:04.046Z,99994.03
2018-06-14T14:23:33.108Z,99986.48
2018-06-14T14:26:02.121Z,99984.13
2018-06-14T14:28:31.196Z,99979.55
2018-06-14T14:31:00.738Z,99976.89
2018-06-14T14:33:29.779Z,99971.97
2018-06-14T14:35:58.842Z,99969.08
2018-06-14T14:38:28.387Z,99972.29
2018-06-14T14:40:57.382Z,99962.48
2018-06-14T14:43:26.402Z,99968.59
2018-06-14T14:45:55.434Z,99973.84
2018-06-14T14:48:24.478Z,99971.34
2018-06-14T14:50:53.465Z,99968.41
2018-06-14T14:53:22.541Z,99976.73
2018-06-14T14:55:51.501Z,99970.83
2018-06-14T14:58:20.509Z,99964.30
2018-06-14T15:00:49.824Z,99967.14
2018-06-14T15:03:18.882Z,99963.06
2018-06-14T15:05:47.863Z,99965.36
2018-06-14T15:08:17.046Z,99962.28
2018-06-14T15:10:46.011Z,99961.73
2018-06-14T15:13:15.038Z,99960.77
2018-06-14T15:15:43.999Z,99959.78
2018-06-14T15:18:13.257Z,99950.31
2018-06-14T15:20:42.217Z,99946.19
2018-06-14T15:23:11.326Z,99949.54
2018-06-14T15:25:40.387Z,99953.98
2018-06-14T15:28:09.411Z,99954.77
2018-06-14T15:30:38.464Z,99945.00
2018-06-14T15:33:07.532Z,99950.86
2018-06-14T15:35:36.556Z,99948.40
2018-06-14T15:38:05.560Z,99947.55
2018-06-14T15:40:34.547Z,99947.90
2018-06-14T15:43:03.664Z,99938.75
2018-06-14T15:45:32.632Z,99939.61
2018-06-14T15:48:01.668Z,99942.66
2018-06-14T15:50:30.751Z,99936.90
2018-06-14T15:52:59.834Z,99938.16
2018-06-14T15:56:00.546Z,99939.67
2018-06-14T15:58:30.819Z,99934.06
2018-06-14T16:01:00.030Z,99933.86
2018-06-14T16:03:29.359Z,99934.63
2018-06-14T16:05:58.364Z,99931.82
2018-06-14T16:25:39.624Z,99919.84
2018-06-14T16:28:08.528Z,99921.97
2018-06-14T16:30:39.302Z,99914.88
2018-06-14T16:33:09.010Z,99920.95
2018-06-14T16:35:38.053Z,99914.94
2018-06-14T16:38:07.375Z,99923.77
2018-06-14T16:40:36.272Z,99922.06
2018-06-14T16:46:19.650Z,99922.84
2018-06-14T16:48:49.920Z,99919.41
2018-06-14T16:51:22.315Z,99912.23
2018-06-14T16:53:51.234Z,99923.53
2018-06-14T16:56:21.104Z,99919.78
2018-06-14T17:27:34.736Z,99916.34
2018-06-14T17:30:04.229Z,99918.70
2018-06-14T17:32:33.212Z,99914.98
2018-06-14T17:35:02.154Z,99916.87
2018-06-14T17:37:31.020Z,99915.21
2018-06-14T17:39:59.932Z,99921.58
2018-06-14T17:42:28.968Z,99926.22
2018-06-14T17:44:57.940Z,99922.69
2018-06-14T17:47:26.929Z,99925.27
2018-06-14T17:49:55.864Z,99920.50
2018-06-14T17:52:24.787Z,99918.70
2018-06-14T17:54:53.693Z,99923.98
2018-06-14T17:57:22.648Z,99925.27
2018-06-14T17:59:51.547Z,99927.17
2018-06-14T18:02:20.552Z,99931.44
2018-06-14T18:04:49.502Z,99930.48
2018-06-14T18:07:18.563Z,99931.11
2018-06-14T18:09:48.028Z,99925.87
2018-06-14T18:12:17.104Z,99927.27
2018-06-14T18:14:46.096Z,99936.66
2018-06-14T18:17:15.161Z,99931.24
2018-06-14T18:19:44.087Z,99933.88
2018-06-14T18:22:13.043Z,99941.41
2018-06-14T18:24:41.993Z,99949.39
2018-06-14T18:27:10.940Z,99949.53
2018-06-14T18:29:39.856Z,99952.63
2018-06-14T18:32:12.465Z,99951.28
2018-06-14T18:34:42.366Z,99952.35
2018-06-14T18:37:11.295Z,99949.30
2018-06-14T18:39:40.283Z,99966.30
2018-06-14T18:42:09.284Z,99966.33
2018-06-14T18:44:38.255Z,99965.74
2018-06-14T18:47:07.173Z,99965.20
2018-06-14T18:49:36.182Z,99965.64
2018-06-14T18:52:05.272Z,99967.07
2018-06-14T18:54:34.187Z,99973.95
2018-06-14T18:57:03.192Z,99978.91
2018-06-14T18:59:32.167Z,99977.95
2018-06-14T19:02:01.092Z,99985.48
2018-06-14T19:04:30.055Z,99990.55
2018-06-14T19:06:59.102Z,99995.09
2018-06-14T19:09:28.011Z,99997.19
2018-06-14T19:11:56.993Z,100005.77
2018-06-14T19:14:25.948Z,100004.66
2018-06-14T19:16:54.900Z,100006.80
2018-06-14T19:19:23.827Z,100010.19
2018-06-14T19:21:52.765Z,100017.41
2018-06-14T19:24:21.782Z,100021.64
2018-06-14T19:26:50.711Z,100021.42
2018-06-14T19:29:19.677Z,100025.19
2018-06-14T19:31:48.677Z,100026.76
2018-06-14T19:34:17.619Z,100031.72
2018-06-14T19:36:46.512Z,100036.77
2018-06-14T19:39:15.625Z,100036.84
2018-06-14T19:41:44.540Z,100046.65
2018-06-14T19:44:13.586Z,100047.09
2018-06-14T19:46:42.564Z,100050.17
2018-06-14T19:49:11.539Z,100046.03
2018-06-14T19:51:40.506Z,100047.53
2018-06-14T19:54:09.415Z,100052.48
2018-06-14T20:03:36.048Z,100055.48
2018-06-14T20:06:05.101Z,100045.95
2018-06-14T20:08:34.055Z,100050.96
2018-06-14T20:11:03.062Z,100056.20
2018-06-14T20:13:32.122Z,100063.91
2018-06-14T20:16:01.082Z,100060.27
2018-06-14T20:18:30.047Z,100055.41
2018-06-14T20:20:59.101Z,100056.92
2018-06-14T20:23:28.178Z,100052.69
2018-06-14T20:25:57.145Z,100054.98
2018-06-14T20:28:26.139Z,100056.98
2018-06-14T20:30:55.261Z,100056.22
2018-06-14T20:33:24.212Z,100062.79
2018-06-14T20:35:53.169Z,100061.36
2018-06-14T20:38:22.168Z,100062.30
2018-06-14T20:40:51.141Z,100062.98
2018-06-14T20:43:20.108Z,100066.25
2018-06-14T20:45:49.284Z,100065.20
2018-06-14T20:48:18.278Z,100072.84
2018-06-14T20:50:47.241Z,100068.76
2018-06-14T20:53:16.225Z,100070.25
2018-06-14T20:55:45.215Z,100066.02
2018-06-14T20:58:14.262Z,100065.30
2018-06-14T21:00:43.264Z,100070.20
2018-06-14T21:03:12.349Z,100068.02
2018-06-14T21:05:41.343Z,100070.86
2018-06-14T21:08:10.397Z,100070.81
2018-06-14T21:10:39.479Z,100070.25
2018-06-14T21:13:08.464Z,100072.09
2018-06-14T21:15:37.487Z,100072.58
2018-06-14T21:18:06.439Z,100075.61
2018-06-14T21:20:35.427Z,100072.79
2018-06-14T21:23:04.529Z,100073.44
2018-06-14T21:25:33.525Z,100076.14
2018-06-14T21:28:02.546Z,100078.31
2018-06-14T21:30:31.526Z,100068.30
2018-06-14T21:33:00.499Z,100076.98
2018-06-14T21:35:29.650Z,100070.23
2018-06-14T21:37:58.714Z,100070.67
2018-06-14T21:40:27.771Z,100070.21
2018-06-14T21:42:56.761Z,100070.02
2018-06-14T21:45:25.739Z,100074.02
2018-06-14T21:47:54.722Z,100076.42
2018-06-14T21:50:23.710Z,100078.88
2018-06-14T21:52:52.686Z,100077.41
2018-06-14T21:55:21.677Z,100073.63
2018-06-14T21:57:50.750Z,100072.81
2018-06-14T22:00:21.784Z,100074.78
2018-06-14T22:02:56.120Z,100068.95
2018-06-14T22:05:25.101Z,100072.02
2018-06-14T22:07:54.110Z,100067.25
2018-06-14T22:10:23.117Z,100072.48
2018-06-14T22:12:52.104Z,100073.10
2018-06-14T22:15:21.286Z,100070.53
2018-06-14T22:17:50.730Z,100070.36
2018-06-14T22:20:19.750Z,100071.28
2018-06-14T22:22:48.738Z,100062.49
2018-06-14T22:25:17.854Z,100062.19
2018-06-14T22:27:46.878Z,100063.03
2018-06-14T22:30:16.450Z,100065.50
2018-06-14T22:32:46.403Z,100061.52
2018-06-14T22:35:26.955Z,100054.22
2018-06-14T22:37:56.388Z,100054.52
2018-06-14T22:40:26.049Z,100057.83
2018-06-14T22:42:55.007Z,100065.71
2018-06-14T22:45:24.010Z,100060.14
2018-06-14T22:47:52.972Z,100066.44
2018-06-14T22:50:33.512Z,100062.75
2018-06-14T22:53:04.933Z,100061.47
2018-06-14T22:55:33.918Z,100060.17
2018-06-14T22:58:02.909Z,100058.09
2018-06-14T23:01:50.643Z,100060.00
2018-06-14T23:04:23.967Z,100057.04
2018-06-14T23:06:52.992Z,100055.41
2018-06-14T23:10:35.324Z,100059.06
2018-06-14T23:13:04.934Z,100057.87
2018-06-14T23:15:34.128Z,100058.86
2018-06-14T23:18:03.128Z,100063.02
2018-06-14T23:20:32.998Z,100054.25
2018-06-14T23:23:02.568Z,100050.82
2018-06-14T23:25:32.212Z,100059.53
2018-06-14T23:28:01.189Z,100056.45
2018-06-14T23:30:30.279Z,100065.92
2018-06-14T23:32:59.429Z,100061.70
2018-06-14T23:35:28.558Z,100066.81
2018-06-14T23:37:57.577Z,100070.62
2018-06-14T23:40:26.573Z,100069.29
2018-06-14T23:42:55.544Z,100068.73
2018-06-14T23:45:24.626Z,100066.48
2018-06-14T23:47:53.739Z,100070.35
2018-06-14T23:50:22.715Z,100072.91
2018-06-14T23:52:51.911Z,100073.84
2018-06-14T23:55:20.907Z,100077.15
2018-06-14T23:57:49.910Z,100076.07
